Time;durP1;ratioP1;P1;durP2;ratioP2;P2;SDS_P1;SDS_P2;PMS_P1;PMS_P2;Temp;Humidity;BMP_temperature;BMP_pressure;BME280_temperature;BME280_humidity;BME280_pressure;Samples;Min_cycle;Max_cycle;Signal;HPM_P1;HPM_P2
2022/09/11 00:00:40;;;;;;;;;;;;;;;13.78;100.00;99750.53;3048278;19;20402;-49
2022/09/11 00:01:42;;;;;;;;;;;;;;;13.76;100.00;99755.22;3048479;19;19922;-48
2022/09/11 00:02:47;;;;;;;;;;;;;;;13.74;100.00;99754.50;3048532;19;20374;-46
2022/09/11 00:03:49;;;;;;;;;;;;;;;13.73;100.00;99758.16;3050978;19;19933;-47
2022/09/11 00:04:54;;;;;;;;;;;;;;;13.73;100.00;99752.78;3053451;19;19927;-46
2022/09/11 00:05:55;;;;;;;;;;;;;;;13.74;100.00;99753.66;3053052;19;20309;-49
2022/09/11 00:07:01;;;;;;;;;;;;;;;13.73;100.00;99755.47;3052767;19;19935;-45
2022/09/11 00:08:02;;;;;;;;;;;;;;;13.73;100.00;99758.16;3052881;19;19995;-48
2022/09/11 00:09:07;;;;;;;;;;;;;;;13.67;100.00;99742.59;3053748;19;20630;-46
2022/09/11 00:10:09;;;;;;;;;;;;;;;13.73;100.00;99757.31;3052636;19;20002;-47
2022/09/11 00:11:16;;;;;;;;;;;;;;;13.70;100.00;99755.72;3052146;19;20273;-49
2022/09/11 00:12:19;;;;;;;;;;;;;;;13.69;100.00;99756.72;3052778;19;20304;-48
2022/09/11 00:13:24;;;;;;;;;;;;;;;13.69;100.00;99751.34;3053113;19;19958;-45
2022/09/11 00:14:27;;;;;;;;;;;;;;;13.67;100.00;99748.78;3053207;19;19980;-45
2022/09/11 00:15:32;;;;;;;;;;;;;;;13.62;100.00;99739.47;3052686;19;19943;-47
2022/09/11 00:16:35;;;;;;;;;;;;;;;13.68;100.00;99744.28;3053161;19;19982;-46
2022/09/11 00:17:39;;;;;;;;;;;;;;;13.68;100.00;99745.13;3053257;19;20013;-49
2022/09/11 00:18:41;;;;;;;;;;;;;;;13.67;100.00;99743.44;3050353;19;19930;-48
2022/09/11 00:19:46;;;;;;;;;;;;;;;13.67;100.00;99745.25;3045832;19;21428;-50
2022/09/11 00:20:48;;;;;;;;;;;;;;;13.67;100.00;99739.91;3045935;19;19942;-46
2022/09/11 00:21:54;;;;;;;;;;;;;;;13.65;100.00;99745.38;3049379;19;20023;-49
2022/09/11 00:22:57;;;;;;;;;;;;;;;13.62;100.00;99742.16;3051860;19;20416;-46
2022/09/11 00:24:01;;;;;;;;;;;;;;;13.59;100.00;99734.34;3050853;19;19925;-47
2022/09/11 00:25:03;;;;;;;;;;;;;;;13.58;100.00;99738.00;3050340;19;19954;-47
2022/09/11 00:26:08;;;;;;;;;;;;;;;13.55;100.00;99732.91;3052816;19;20967;-49
2022/09/11 00:27:10;;;;;;;;;;;;;;;13.52;100.00;99735.88;3056435;19;19927;-45
2022/09/11 00:28:15;;;;;;;;;;;;;;;13.51;100.00;99731.50;3055826;19;19999;-47
2022/09/11 00:29:19;;;;;;;;;;;;;;;13.51;100.00;99732.34;3056201;19;20293;-47
2022/09/11 00:30:21;;;;;;;;;;;;;;;13.52;100.00;99722.47;3055686;19;19927;-49
2022/09/11 00:31:27;;;;;;;;;;;;;;;13.53;100.00;99724.16;3056575;19;19915;-47
2022/09/11 00:32:32;;;;;;;;;;;;;;;13.52;100.00;99717.13;3055417;19;20369;-46
2022/09/11 00:33:37;;;;;;;;;;;;;;;13.53;100.00;99716.09;3055459;19;19918;-47
2022/09/11 00:34:41;;;;;;;;;;;;;;;13.52;100.00;99711.75;3055425;19;19973;-49
2022/09/11 00:35:43;;;;;;;;;;;;;;;13.51;100.00;99705.53;3054658;19;19927;-49
2022/09/11 00:36:47;;;;;;;;;;;;;;;13.53;100.00;99702.69;3055477;19;19915;-47
2022/09/11 00:37:50;;;;;;;;;;;;;;;13.51;100.00;99704.69;3055599;19;19922;-48
2022/09/11 00:38:55;;;;;;;;;;;;;;;13.50;100.00;99709.19;3055389;19;20391;-48
2022/09/11 00:39:57;;;;;;;;;;;;;;;13.48;100.00;99704.94;3055290;19;19919;-47
2022/09/11 00:41:02;;;;;;;;;;;;;;;13.48;100.00;99705.78;3053318;19;19918;-46
2022/09/11 00:42:04;;;;;;;;;;;;;;;13.47;100.00;99701.41;3048209;19;19927;-47
2022/09/11 00:43:11;;;;;;;;;;;;;;;13.46;100.00;99701.53;3047538;19;19954;-48
2022/09/11 00:44:14;;;;;;;;;;;;;;;13.46;100.00;99698.88;3047653;19;20480;-46
2022/09/11 00:45:24;;;;;;;;;;;;;;;13.44;100.00;99692.78;3049898;19;19910;-51
2022/09/11 00:46:30;;;;;;;;;;;;;;;13.43;100.00;99689.25;3050489;19;19915;-45
2022/09/11 00:47:34;;;;;;;;;;;;;;;13.44;100.00;99682.91;3050133;19;20281;-48
2022/09/11 00:48:36;;;;;;;;;;;;;;;13.43;100.00;99689.25;3052899;19;19926;-49
2022/09/11 00:49:45;;;;;;;;;;;;;;;13.43;100.00;99680.34;3054359;19;20354;-48
2022/09/11 00:50:47;;;;;;;;;;;;;;;13.39;100.00;99685.16;3055884;19;20005;-48
2022/09/11 00:51:52;;;;;;;;;;;;;;;13.39;100.00;99673.59;3054774;19;20325;-47
2022/09/11 00:52:56;;;;;;;;;;;;;;;13.34;100.00;99677.50;3054735;19;19951;-45
2022/09/11 00:54:00;;;;;;;;;;;;;;;13.35;100.00;99678.34;3055195;19;19929;-47
2022/09/11 00:55:13;;;;;;;;;;;;;;;13.34;100.00;99672.13;3055355;19;19974;-48
2022/09/11 00:56:17;;;;;;;;;;;;;;;13.34;100.00;99677.50;3055141;19;19931;-46
2022/09/11 00:57:19;;;;;;;;;;;;;;;13.34;100.00;99671.28;3055288;19;20055;-46
2022/09/11 00:58:25;;;;;;;;;;;;;;;13.34;100.00;99666.78;3055625;19;19946;-46
2022/09/11 00:59:28;;;;;;;;;;;;;;;13.33;100.00;99665.09;3055484;19;19946;-46
2022/09/11 01:00:32;;;;;;;;;;;;;;;13.31;100.00;99648.28;3055743;19;21144;-48
2022/09/11 01:01:34;;;;;;;;;;;;;;;13.30;100.00;99665.34;3055414;19;20023;-48
2022/09/11 01:02:39;;;;;;;;;;;;;;;13.29;100.00;99663.63;3055839;19;20270;-46
2022/09/11 01:03:41;;;;;;;;;;;;;;;13.25;100.00;99661.38;3051341;19;20099;-48
2022/09/11 01:04:46;;;;;;;;;;;;;;;13.26;100.00;99652.34;3047202;19;19966;-49
2022/09/11 01:05:48;;;;;;;;;;;;;;;13.24;100.00;99655.16;3048683;19;19991;-46
2022/09/11 01:06:53;;;;;;;;;;;;;;;13.23;100.00;99658.81;3048281;19;19947;-45
2022/09/11 01:07:55;;;;;;;;;;;;;;;13.23;100.00;99658.81;3050215;19;20315;-47
2022/09/11 01:09:00;;;;;;;;;;;;;;;13.23;100.00;99650.78;3049403;19;19918;-47
2022/09/11 01:10:05;;;;;;;;;;;;;;;13.23;100.00;99652.59;3050116;19;19930;-46
2022/09/11 01:11:21;;;;;;;;;;;;;;;13.23;100.00;99653.47;3052538;19;19918;-48
2022/09/11 01:12:32;;;;;;;;;;;;;;;13.23;100.00;99652.59;3054640;19;19934;-49
2022/09/11 01:13:49;;;;;;;;;;;;;;;13.23;100.00;99653.47;3055981;19;19928;-46
2022/09/11 01:14:53;;;;;;;;;;;;;;;13.22;100.00;99643.72;3055860;19;20648;-46
2022/09/11 01:16:05;;;;;;;;;;;;;;;13.23;100.00;99645.41;3054499;19;19954;-47
2022/09/11 01:17:09;;;;;;;;;;;;;;;13.23;100.00;99648.09;3054545;19;19923;-47
2022/09/11 01:18:18;;;;;;;;;;;;;;;13.24;100.00;99648.94;3054406;19;20687;-49
2022/09/11 01:19:39;;;;;;;;;;;;;;;13.24;100.00;99644.44;3054725;19;19922;-48
2022/09/11 01:20:58;;;;;;;;;;;;;;;13.22;100.00;99646.41;3054909;19;19923;-48
2022/09/11 01:22:10;;;;;;;;;;;;;;;13.26;100.00;99647.00;3055223;19;19936;-48
2022/09/11 01:23:21;;;;;;;;;;;;;;;13.27;100.00;99644.19;3054113;19;19919;-45
2022/09/11 01:24:44;;;;;;;;;;;;;;;13.27;100.00;99646.88;3054216;19;19935;-48
2022/09/11 01:25:54;;;;;;;;;;;;;;;13.29;100.00;99642.19;3052023;19;19923;-48
2022/09/11 01:26:56;;;;;;;;;;;;;;;13.30;100.00;99638.53;3048180;19;19954;-49
2022/09/11 01:28:01;;;;;;;;;;;;;;;13.31;100.00;99640.25;3048692;19;19919;-46
2022/09/11 01:29:12;;;;;;;;;;;;;;;13.32;100.00;99641.09;3046921;19;19923;-46
2022/09/11 01:30:17;;;;;;;;;;;;;;;13.33;100.00;99637.44;3050196;19;19939;-49
2022/09/11 01:31:19;;;;;;;;;;;;;;;13.30;100.00;99641.22;3050023;19;20676;-48
2022/09/11 01:32:30;;;;;;;;;;;;;;;13.30;100.00;99633.19;3049830;19;19914;-46
2022/09/11 01:33:35;;;;;;;;;;;;;;;13.31;100.00;99639.38;3052258;19;19927;-46
2022/09/11 01:34:43;;;;;;;;;;;;;;;13.29;100.00;99626.13;3054683;19;20640;-49
2022/09/11 01:35:57;;;;;;;;;;;;;;;13.27;100.00;99628.13;3054632;19;19922;-48
2022/09/11 01:37:00;;;;;;;;;;;;;;;13.27;100.00;99633.47;3054503;19;20565;-49
2022/09/11 01:38:14;;;;;;;;;;;;;;;13.25;100.00;99635.44;3054147;19;20358;-48
2022/09/11 01:39:16;;;;;;;;;;;;;;;13.26;100.00;99623.72;3054601;19;19983;-48
2022/09/11 01:40:25;;;;;;;;;;;;;;;13.23;100.00;99618.63;3054599;19;19947;-47
2022/09/11 01:41:29;;;;;;;;;;;;;;;13.25;100.00;99623.84;3054075;19;19943;-46
2022/09/11 01:42:34;;;;;;;;;;;;;;;13.25;100.00;99623.84;3054364;19;19955;-48
2022/09/11 01:43:40;;;;;;;;;;;;;;;13.24;100.00;99622.16;3054494;19;19922;-46
2022/09/11 01:44:47;;;;;;;;;;;;;;;13.26;100.00;99615.69;3054629;19;19919;-47
2022/09/11 01:45:49;;;;;;;;;;;;;;;13.28;100.00;99618.25;3054331;19;19978;-49
2022/09/11 01:46:54;;;;;;;;;;;;;;;13.30;100.00;99619.78;3054276;19;19990;-46
2022/09/11 01:47:57;;;;;;;;;;;;;;;13.27;100.00;99617.38;3054054;19;20156;-48
2022/09/11 01:49:06;;;;;;;;;;;;;;;13.25;100.00;99619.34;3046910;19;20082;-47
2022/09/11 01:50:08;;;;;;;;;;;;;;;13.22;100.00;99611.56;3046261;19;19932;-54
2022/09/11 01:51:15;;;;;;;;;;;;;;;13.21;100.00;99607.19;3047031;19;19919;-48
2022/09/11 01:52:37;;;;;;;;;;;;;;;13.24;100.00;99606.94;3049272;19;19923;-46
2022/09/11 01:53:41;;;;;;;;;;;;;;;13.23;100.00;99609.75;3048837;19;20022;-47
2022/09/11 01:54:50;;;;;;;;;;;;;;;13.23;100.00;99612.41;3049187;19;19927;-48
2022/09/11 01:55:58;;;;;;;;;;;;;;;13.22;100.00;99608.88;3052207;19;19926;-48
2022/09/11 01:57:03;;;;;;;;;;;;;;;13.20;100.00;99610.84;3054710;19;19918;-47
2022/09/11 01:58:15;;;;;;;;;;;;;;;13.17;100.00;99611.09;3054265;19;19919;-47
2022/09/11 01:59:20;;;;;;;;;;;;;;;13.16;100.00;99608.59;3053845;19;19919;-47
2022/09/11 02:00:26;;;;;;;;;;;;;;;13.15;100.00;99602.38;3053893;19;20358;-44
2022/09/11 02:01:32;;;;;;;;;;;;;;;13.15;100.00;99602.38;3053888;19;20663;-48
2022/09/11 02:02:38;;;;;;;;;;;;;;;13.16;100.00;99592.50;3054062;19;19970;-49
2022/09/11 02:03:41;;;;;;;;;;;;;;;13.16;100.00;99598.69;3049868;19;19919;-46
2022/09/11 02:04:54;;;;;;;;;;;;;;;13.18;100.00;99602.09;3052239;19;20741;-50
2022/09/11 02:06:00;;;;;;;;;;;;;;;13.14;100.00;99592.66;3053358;19;19951;-47
2022/09/11 02:07:09;;;;;;;;;;;;;;;13.14;100.00;99600.69;3054347;19;19930;-45
2022/09/11 02:08:23;;;;;;;;;;;;;;;13.15;100.00;99602.38;3054021;19;19971;-46
2022/09/11 02:09:29;;;;;;;;;;;;;;;13.15;100.00;99599.69;3053642;19;19923;-48
2022/09/11 02:10:36;;;;;;;;;;;;;;;13.16;100.00;99593.34;3051930;19;19926;-49
2022/09/11 02:11:41;;;;;;;;;;;;;;;13.16;100.00;99603.22;3046939;19;19923;-50
2022/09/11 02:12:45;;;;;;;;;;;;;;;13.13;100.00;99598.09;3046758;19;19996;-49
2022/09/11 02:14:09;;;;;;;;;;;;;;;13.10;100.00;99599.19;3046682;19;19943;-48
2022/09/11 02:15:12;;;;;;;;;;;;;;;13.08;100.00;99590.44;3049074;19;19914;-50
2022/09/11 02:16:21;;;;;;;;;;;;;;;13.07;100.00;99594.09;3049689;19;19918;-46
2022/09/11 02:17:42;;;;;;;;;;;;;;;13.07;100.00;99594.09;3049569;19;19943;-47
2022/09/11 02:18:56;;;;;;;;;;;;;;;13.06;100.00;99587.03;3053366;19;20263;-45
2022/09/11 02:19:58;;;;;;;;;;;;;;;13.08;100.00;99590.44;3054277;19;19955;-49
2022/09/11 02:21:02;;;;;;;;;;;;;;;13.08;100.00;99581.56;3053650;19;19923;-47
2022/09/11 02:22:04;;;;;;;;;;;;;;;13.09;100.00;99586.78;3053917;19;19982;-50
2022/09/11 02:23:12;;;;;;;;;;;;;;;13.08;100.00;99579.72;3053535;19;20452;-49
2022/09/11 02:24:14;;;;;;;;;;;;;;;13.08;100.00;99590.44;3053181;19;19919;-47
2022/09/11 02:25:21;;;;;;;;;;;;;;;13.08;100.00;99590.44;3052391;19;19976;-50
2022/09/11 02:26:30;;;;;;;;;;;;;;;13.07;100.00;99585.22;3054098;19;19992;-49
2022/09/11 02:27:35;;;;;;;;;;;;;;;13.07;100.00;99588.75;3053038;19;19927;-46
2022/09/11 02:28:37;;;;;;;;;;;;;;;13.05;100.00;99588.03;3054099;19;19918;-48
2022/09/11 02:29:42;;;;;;;;;;;;;;;13.06;100.00;99576.31;3053480;19;19914;-46
2022/09/11 02:30:44;;;;;;;;;;;;;;;13.05;100.00;99574.63;3053502;19;19978;-45
2022/09/11 02:31:48;;;;;;;;;;;;;;;13.04;100.00;99580.16;3053180;19;19923;-46
2022/09/11 02:32:50;;;;;;;;;;;;;;;12.94;100.00;99572.03;3051992;19;20320;-46
2022/09/11 02:33:54;;;;;;;;;;;;;;;12.91;100.00;99566.97;3046533;19;19919;-48
2022/09/11 02:34:56;;;;;;;;;;;;;;;12.88;100.00;99559.19;3046256;19;20007;-49
2022/09/11 02:36:06;;;;;;;;;;;;;;;12.79;100.00;99568.00;3046220;19;20410;-48
2022/09/11 02:37:10;;;;;;;;;;;;;;;12.67;100.00;99558.34;3048797;19;20607;-49
2022/09/11 02:38:17;;;;;;;;;;;;;;;12.65;100.00;99549.59;3048136;19;19922;-50
2022/09/11 02:39:30;;;;;;;;;;;;;;;12.66;100.00;99545.94;3049044;19;19932;-49
2022/09/11 02:40:36;;;;;;;;;;;;;;;12.67;100.00;99547.63;3051757;19;19918;-51
2022/09/11 02:41:51;;;;;;;;;;;;;;;12.62;100.00;99540.00;3053253;19;19919;-51
2022/09/11 02:43:02;;;;;;;;;;;;;;;12.63;100.00;99536.34;3053763;19;19939;-52
2022/09/11 02:44:08;;;;;;;;;;;;;;;12.66;100.00;99525.38;3052314;19;19934;-51
2022/09/11 02:45:15;;;;;;;;;;;;;;;12.68;100.00;99519.91;3053451;19;20237;-48
2022/09/11 02:46:22;;;;;;;;;;;;;;;12.67;100.00;99523.56;3052563;19;19919;-50
2022/09/11 02:47:45;;;;;;;;;;;;;;;12.67;100.00;99515.53;3053347;19;19918;-48
2022/09/11 02:49:26;;;;;;;;;;;;;;;12.62;100.00;99514.06;3053563;19;19941;-49
2022/09/11 02:50:35;;;;;;;;;;;;;;;12.58;100.00;99506.44;3051777;19;19919;-47
2022/09/11 02:51:59;;;;;;;;;;;;;;;12.52;100.00;99496.25;3052697;19;20905;-50
2022/09/11 02:53:03;;;;;;;;;;;;;;;12.46;100.00;99497.63;3052688;19;20091;-50
2022/09/11 02:54:18;;;;;;;;;;;;;;;12.42;100.00;99490.84;3052087;19;19990;-47
2022/09/11 02:55:24;;;;;;;;;;;;;;;12.40;100.00;99492.81;3049751;19;19926;-49
2022/09/11 02:56:31;;;;;;;;;;;;;;;12.42;100.00;99485.50;3046027;19;20061;-49
2022/09/11 02:57:38;;;;;;;;;;;;;;;12.42;100.00;99480.16;3045667;19;19946;-48
2022/09/11 02:58:42;;;;;;;;;;;;;;;12.41;100.00;99481.13;3046792;19;20018;-50
2022/09/11 02:59:46;;;;;;;;;;;;;;;12.41;100.00;99483.81;3048703;19;19918;-47
2022/09/11 03:00:50;;;;;;;;;;;;;;;12.39;100.00;99479.56;3048737;19;19951;-50
2022/09/11 03:01:53;;;;;;;;;;;;;;;12.40;100.00;99479.44;3048704;19;19919;-49
2022/09/11 03:03:02;;;;;;;;;;;;;;;12.37;100.00;99474.31;3051593;19;19936;-47
2022/09/11 03:04:04;;;;;;;;;;;;;;;12.37;100.00;99476.16;3053608;19;19970;-46
2022/09/11 03:05:12;;;;;;;;;;;;;;;12.33;100.00;99478.22;3052581;19;19962;-49
2022/09/11 03:06:22;;;;;;;;;;;;;;;12.30;100.00;99465.13;3053534;19;19922;-47
2022/09/11 03:07:27;;;;;;;;;;;;;;;12.30;100.00;99462.47;3053198;19;19915;-49
2022/09/11 03:08:30;;;;;;;;;;;;;;;12.31;100.00;99461.50;3053155;19;19933;-48
2022/09/11 03:09:36;;;;;;;;;;;;;;;12.29;100.00;99462.59;3053164;19;20322;-48
2022/09/11 03:10:45;;;;;;;;;;;;;;;12.28;100.00;99456.38;3053384;19;21181;-50
2022/09/11 03:11:50;;;;;;;;;;;;;;;12.30;100.00;99448.25;3052923;19;19940;-47
2022/09/11 03:12:51;;;;;;;;;;;;;;;12.30;100.00;99454.44;3053500;19;19919;-47
2022/09/11 03:13:57;;;;;;;;;;;;;;;12.31;100.00;99441.91;3053808;19;20404;-50
2022/09/11 03:15:00;;;;;;;;;;;;;;;12.33;100.00;99440.78;3052800;19;19923;-47
2022/09/11 03:16:06;;;;;;;;;;;;;;;12.35;100.00;99444.19;3053695;19;20039;-50
2022/09/11 03:17:08;;;;;;;;;;;;;;;12.36;100.00;99437.84;3053417;19;19923;-47
2022/09/11 03:18:14;;;;;;;;;;;;;;;12.37;99.35;99434.19;3047591;19;19954;-48
2022/09/11 03:19:16;;;;;;;;;;;;;;;12.36;100.00;99432.50;3045773;19;19944;-50
2022/09/11 03:20:20;;;;;;;;;;;;;;;12.36;100.00;99432.50;3045823;19;20339;-50
2022/09/11 03:21:22;;;;;;;;;;;;;;;12.38;98.67;99419.84;3047628;19;19919;-48
2022/09/11 03:22:27;;;;;;;;;;;;;;;12.39;96.73;99416.19;3048412;19;20332;-47
2022/09/11 03:23:29;;;;;;;;;;;;;;;12.40;96.44;99417.88;3048490;19;19926;-48
2022/09/11 03:24:33;;;;;;;;;;;;;;;12.42;97.21;99417.75;3047558;19;19922;-49
2022/09/11 03:25:35;;;;;;;;;;;;;;;12.42;96.91;99426.63;3052708;19;20671;-48
2022/09/11 03:26:40;;;;;;;;;;;;;;;12.38;96.71;99433.22;3053328;19;19996;-49
2022/09/11 03:27:43;;;;;;;;;;;;;;;12.39;96.02;99416.19;3053728;19;19919;-50
2022/09/11 03:28:49;;;;;;;;;;;;;;;12.41;95.71;99422.25;3053171;19;19994;-48
2022/09/11 03:29:51;;;;;;;;;;;;;;;12.40;95.24;99420.56;3052881;19;19918;-49
2022/09/11 03:30:56;;;;;;;;;;;;;;;12.40;94.78;99412.53;3053527;19;20246;-50
2022/09/11 03:32:00;;;;;;;;;;;;;;;12.41;94.12;99414.22;3052908;19;19974;-48
2022/09/11 03:33:04;;;;;;;;;;;;;;;12.44;93.93;99419.28;3053608;19;19922;-49
2022/09/11 03:34:07;;;;;;;;;;;;;;;12.45;93.49;99412.97;3052745;19;19985;-49
2022/09/11 03:35:12;;;;;;;;;;;;;;;12.45;92.83;99421.00;3053047;19;19939;-50
2022/09/11 03:36:16;;;;;;;;;;;;;;;12.47;92.49;99410.16;3052635;19;20372;-48
2022/09/11 03:37:19;;;;;;;;;;;;;;;12.46;91.81;99417.34;3053195;19;19923;-50
2022/09/11 03:38:23;;;;;;;;;;;;;;;12.48;91.33;99410.03;3053922;19;19978;-49
2022/09/11 03:39:27;;;;;;;;;;;;;;;12.48;90.92;99412.72;3052666;19;19935;-48
2022/09/11 03:40:34;;;;;;;;;;;;;;;12.49;90.68;99411.72;3047586;19;20405;-48
2022/09/11 03:41:36;;;;;;;;;;;;;;;12.48;91.04;99411.88;3046156;19;19923;-49
2022/09/11 03:42:41;;;;;;;;;;;;;;;12.48;90.75;99404.69;3046274;19;20171;-47
2022/09/11 03:43:43;;;;;;;;;;;;;;;12.46;90.31;99412.00;3048306;19;19923;-51
2022/09/11 03:44:47;;;;;;;;;;;;;;;12.46;90.11;99409.31;3047942;19;19923;-49
2022/09/11 03:45:50;;;;;;;;;;;;;;;12.45;89.94;99414.78;3048435;19;19934;-47
2022/09/11 03:46:55;;;;;;;;;;;;;;;12.44;89.77;99408.59;3047633;19;19922;-50
2022/09/11 03:47:58;;;;;;;;;;;;;;;12.47;89.49;99410.16;3052194;19;19943;-51
2022/09/11 03:49:02;;;;;;;;;;;;;;;12.46;89.35;99406.63;3052846;19;19918;-49
2022/09/11 03:50:05;;;;;;;;;;;;;;;12.47;88.84;99408.34;3052600;19;19923;-50
2022/09/11 03:51:09;;;;;;;;;;;;;;;12.45;88.62;99404.94;3052351;19;19919;-49
2022/09/11 03:52:12;;;;;;;;;;;;;;;12.45;88.36;99404.94;3052374;19;19930;-48
2022/09/11 03:53:17;;;;;;;;;;;;;;;12.46;87.94;99403.97;3052839;19;19945;-50
2022/09/11 03:54:19;;;;;;;;;;;;;;;12.43;87.45;99412.28;3053424;19;20339;-49
2022/09/11 03:55:25;;;;;;;;;;;;;;;12.44;87.18;99407.75;3051449;19;19927;-51
2022/09/11 03:56:27;;;;;;;;;;;;;;;12.44;86.93;99400.56;3054328;19;19923;-50
2022/09/11 03:57:34;;;;;;;;;;;;;;;12.45;86.96;99410.28;3056008;19;20156;-51
2022/09/11 03:58:36;;;;;;;;;;;;;;;12.43;86.70;99401.56;3055956;19;19998;-52
2022/09/11 03:59:40;;;;;;;;;;;;;;;12.44;86.38;99405.91;3056617;19;19935;-51
2022/09/11 04:00:43;;;;;;;;;;;;;;;12.43;85.99;99401.56;3055241;19;20031;-50
2022/09/11 04:01:48;;;;;;;;;;;;;;;12.40;85.88;99398.31;3055573;19;19918;-51
2022/09/11 04:02:50;;;;;;;;;;;;;;;12.42;85.70;99409.72;3050288;19;20070;-51
2022/09/11 04:04:06;;;;;;;;;;;;;;;12.40;85.55;99401.00;3049500;19;20120;-52
2022/09/11 04:05:13;;;;;;;;;;;;;;;12.41;85.30;99406.22;3048772;19;19951;-51
2022/09/11 04:06:17;;;;;;;;;;;;;;;12.40;84.96;99401.84;3050659;19;19930;-52
2022/09/11 04:07:19;;;;;;;;;;;;;;;12.40;84.67;99401.00;3050246;19;19942;-50
2022/09/11 04:08:25;;;;;;;;;;;;;;;12.40;84.34;99401.00;3051227;19;19922;-52
2022/09/11 04:09:30;;;;;;;;;;;;;;;12.40;84.11;99404.50;3051346;19;19974;-48
2022/09/11 04:10:35;;;;;;;;;;;;;;;12.39;83.68;99400.13;3055612;19;19922;-51
2022/09/11 04:11:38;;;;;;;;;;;;;;;12.38;83.37;99398.44;3055817;19;20246;-49
2022/09/11 04:13:03;;;;;;;;;;;;;;;12.38;82.59;99398.44;3055786;19;20279;-52
2022/09/11 04:14:05;;;;;;;;;;;;;;;12.40;82.13;99401.00;3056010;19;19914;-49
2022/09/11 04:15:12;;;;;;;;;;;;;;;12.38;82.10;99394.91;3055237;19;19919;-51
2022/09/11 04:16:16;;;;;;;;;;;;;;;12.40;82.02;99407.19;3055704;19;19919;-51
2022/09/11 04:17:23;;;;;;;;;;;;;;;12.39;81.98;99404.63;3055153;19;19950;-52
2022/09/11 04:18:25;;;;;;;;;;;;;;;12.40;82.59;99401.84;3056035;19;19932;-52
2022/09/11 04:19:29;;;;;;;;;;;;;;;12.41;82.62;99398.19;3055222;19;19926;-50
2022/09/11 04:20:32;;;;;;;;;;;;;;;12.39;82.61;99400.13;3055962;19;19923;-50
2022/09/11 04:21:38;;;;;;;;;;;;;;;12.40;82.55;99393.81;3055263;19;19923;-49
2022/09/11 04:22:40;;;;;;;;;;;;;;;12.41;82.02;99394.66;3055547;19;19930;-50
2022/09/11 04:23:45;;;;;;;;;;;;;;;12.41;81.58;99398.19;3055595;19;19986;-50
2022/09/11 04:24:46;;;;;;;;;;;;;;;12.43;81.28;99395.38;3052361;19;19930;-52
2022/09/11 04:25:51;;;;;;;;;;;;;;;12.45;80.72;99394.25;3048402;19;20311;-51
2022/09/11 04:26:53;;;;;;;;;;;;;;;12.47;80.56;99392.28;3048373;19;19918;-50
2022/09/11 04:28:05;;;;;;;;;;;;;;;12.47;80.41;99394.97;3049469;19;19942;-51
2022/09/11 04:29:06;;;;;;;;;;;;;;;12.49;80.22;99394.84;3050504;19;19931;-52
2022/09/11 04:30:12;;;;;;;;;;;;;;;12.49;80.26;99390.31;3051008;19;19987;-50
2022/09/11 04:31:14;;;;;;;;;;;;;;;12.49;80.19;99395.69;3050975;19;19922;-48
2022/09/11 04:32:19;;;;;;;;;;;;;;;12.50;80.02;99392.03;3053919;19;20372;-49
2022/09/11 04:33:21;;;;;;;;;;;;;;;12.49;79.89;99387.66;3055588;19;20012;-52
2022/09/11 04:34:25;;;;;;;;;;;;;;;12.51;80.00;99383.03;3055088;19;20358;-50
2022/09/11 04:35:28;;;;;;;;;;;;;;;12.54;79.81;99389.94;3055569;19;19985;-49
2022/09/11 04:36:34;;;;;;;;;;;;;;;12.54;79.66;99393.47;3055333;19;19926;-51
2022/09/11 04:37:36;;;;;;;;;;;;;;;12.56;79.64;99380.78;3055615;19;20343;-52
2022/09/11 04:38:41;;;;;;;;;;;;;;;12.56;79.97;99383.44;3054860;19;19941;-49
2022/09/11 04:39:46;;;;;;;;;;;;;;;12.55;80.14;99379.09;3055313;19;20682;-53
2022/09/11 04:40:52;;;;;;;;;;;;;;;12.58;80.62;99386.84;3055401;19;19946;-52
2022/09/11 04:41:54;;;;;;;;;;;;;;;12.60;80.88;99376.84;3055021;19;19915;-52
2022/09/11 04:42:59;;;;;;;;;;;;;;;12.62;81.13;99374.91;3055734;19;19927;-52
2022/09/11 04:44:01;;;;;;;;;;;;;;;12.62;81.10;99380.25;3055535;19;20279;-51
2022/09/11 04:45:10;;;;;;;;;;;;;;;12.62;80.89;99372.22;3055527;19;19915;-51
2022/09/11 04:46:14;;;;;;;;;;;;;;;12.58;80.62;99380.63;3055992;19;19918;-51
2022/09/11 04:47:20;;;;;;;;;;;;;;;12.60;80.45;99371.50;3051582;19;19930;-53
2022/09/11 04:48:21;;;;;;;;;;;;;;;12.62;80.14;99374.03;3048239;19;19919;-53
2022/09/11 04:49:26;;;;;;;;;;;;;;;12.65;79.82;99378.28;3048200;19;19923;-53
2022/09/11 04:50:29;;;;;;;;;;;;;;;12.63;79.75;99368.56;3049082;19;19922;-49
2022/09/11 04:51:48;;;;;;;;;;;;;;;12.66;79.41;99369.28;3050950;19;19935;-51
2022/09/11 04:52:53;;;;;;;;;;;;;;;12.67;78.97;99365.63;3050575;19;19914;-51
2022/09/11 04:53:58;;;;;;;;;;;;;;;12.70;78.78;99366.19;3050479;19;19919;-52
2022/09/11 04:55:07;;;;;;;;;;;;;;;12.70;78.20;99366.19;3054587;19;19918;-49
2022/09/11 04:56:12;;;;;;;;;;;;;;;12.66;78.00;99361.25;3055422;19;19923;-53
2022/09/11 04:57:18;;;;;;;;;;;;;;;12.71;77.53;99372.38;3054900;19;20365;-49
2022/09/11 04:58:23;;;;;;;;;;;;;;;12.70;77.51;99359.97;3055253;19;20208;-50
2022/09/11 04:59:25;;;;;;;;;;;;;;;12.72;77.00;99366.06;3054993;19;20333;-53
2022/09/11 05:00:42;;;;;;;;;;;;;;;12.72;76.88;99356.19;3055153;19;19947;-51
2022/09/11 05:01:45;;;;;;;;;;;;;;;12.74;76.54;99366.75;3054818;19;19932;-51
2022/09/11 05:02:53;;;;;;;;;;;;;;;12.75;76.28;99360.44;3055115;19;19919;-53
2022/09/11 05:03:55;;;;;;;;;;;;;;;12.74;76.27;99361.41;3055009;19;19919;-50
2022/09/11 05:05:00;;;;;;;;;;;;;;;12.74;76.30;99361.41;3055190;19;19915;-52
2022/09/11 05:06:04;;;;;;;;;;;;;;;12.75;76.17;99363.09;3054978;19;20477;-52
2022/09/11 05:07:13;;;;;;;;;;;;;;;12.73;75.74;99357.03;3054975;19;19923;-50
2022/09/11 05:08:17;;;;;;;;;;;;;;;12.71;75.72;99357.16;3053834;19;19926;-53
2022/09/11 05:09:23;;;;;;;;;;;;;;;12.70;75.63;99359.97;3053123;19;19923;-50
2022/09/11 05:10:27;;;;;;;;;;;;;;;12.71;75.43;99361.69;3048266;19;19923;-52
2022/09/11 05:11:32;;;;;;;;;;;;;;;12.69;75.52;99358.28;3048316;19;19925;-51
2022/09/11 05:12:33;;;;;;;;;;;;;;;12.71;75.59;99356.31;3048576;19;20039;-51
2022/09/11 05:13:38;;;;;;;;;;;;;;;12.68;76.19;99354.75;3050365;19;20032;-51
2022/09/11 05:14:40;;;;;;;;;;;;;;;12.69;76.63;99358.28;3050431;19;20018;-53
2022/09/11 05:15:45;;;;;;;;;;;;;;;12.70;77.07;99359.97;3049935;19;19918;-50
2022/09/11 05:16:47;;;;;;;;;;;;;;;12.70;77.16;99359.97;3052469;19;19978;-49
2022/09/11 05:17:54;;;;;;;;;;;;;;;12.69;77.29;99352.94;3054170;19;19922;-50
2022/09/11 05:18:57;;;;;;;;;;;;;;;12.67;77.71;99354.91;3055178;19;20399;-51
2022/09/11 05:20:02;;;;;;;;;;;;;;;12.71;78.56;99350.97;3052219;19;19927;-51
2022/09/11 05:21:06;;;;;;;;;;;;;;;12.70;78.52;99346.59;3052885;19;20512;-49
2022/09/11 05:22:11;;;;;;;;;;;;;;;12.72;77.95;99350.84;3050630;19;19949;-53
2022/09/11 05:23:19;;;;;;;;;;;;;;;12.71;76.44;99353.66;3054515;19;19921;-53
2022/09/11 05:24:23;;;;;;;;;;;;;;;12.71;76.04;99356.31;3054676;19;19926;-51
2022/09/11 05:25:28;;;;;;;;;;;;;;;12.73;75.41;99349.00;3054883;19;20298;-51
2022/09/11 05:26:34;;;;;;;;;;;;;;;12.73;75.28;99346.34;3053703;19;19971;-54
2022/09/11 05:27:37;;;;;;;;;;;;;;;12.72;74.81;99352.66;3053772;19;19915;-53
2022/09/11 05:28:41;;;;;;;;;;;;;;;12.70;74.67;99349.28;3053125;19;19961;-51
2022/09/11 05:29:43;;;;;;;;;;;;;;;12.71;74.05;99350.97;3055145;19;19937;-51
2022/09/11 05:30:49;;;;;;;;;;;;;;;12.71;74.25;99350.97;3054811;19;19915;-51
2022/09/11 05:31:51;;;;;;;;;;;;;;;12.69;74.21;99348.44;3050523;19;19935;-51
2022/09/11 05:32:57;;;;;;;;;;;;;;;12.71;74.39;99350.97;3045963;19;19929;-51
2022/09/11 05:33:59;;;;;;;;;;;;;;;12.71;74.74;99351.81;3047274;19;19972;-50
2022/09/11 05:35:06;;;;;;;;;;;;;;;12.73;74.80;99346.34;3047523;19;20995;-52
2022/09/11 05:36:09;;;;;;;;;;;;;;;12.72;74.78;99344.63;3050348;19;19915;-53
2022/09/11 05:37:13;;;;;;;;;;;;;;;12.73;74.85;99340.97;3050329;19;20031;-52
2022/09/11 05:38:19;;;;;;;;;;;;;;;12.69;74.84;99350.25;3050151;19;19918;-53
2022/09/11 05:39:23;;;;;;;;;;;;;;;12.71;75.01;99349.13;3053212;19;19919;-56